< Typhoon 197425 1974 Season Typhoon 197427 >
Typhoon 197426 (ELAINE)
General InformationTrack Information on Google Maps || Disaster Info.ResourceGoogle EarthGE AnimationAtom FeedGeoJSON
Detalied Best Track (Time Zone = UTC)
Year Month Day Hour Lat. Long. Pressure (hPa) Wind (kt) Class Image Chart
1974 10 22 12 13.5 147.5 1008 0 2 -- Chart
1974 10 22 18 14.0 146.0 1006 0 2 -- Chart
1974 10 23 00 15.0 145.0 1006 0 2 -- Chart
1974 10 23 06 15.0 144.5 1005 0 2 -- Chart
1974 10 23 12 16.0 144.0 1004 0 2 -- Chart
1974 10 23 18 16.6 143.6 1004 0 2 -- Chart
1974 10 24 00 17.0 141.4 1004 0 2 -- Chart
1974 10 24 06 17.8 140.4 998 0 2 -- Chart
1974 10 24 12 18.3 139.5 1000 0 2 -- Chart
1974 10 24 18 18.4 138.5 1000 0 2 -- Chart
1974 10 25 00 18.4 137.4 996 0 9 -- Chart
1974 10 25 06 18.1 136.4 994 0 9 -- Chart
1974 10 25 12 17.7 135.4 992 0 9 -- Chart
1974 10 25 18 17.2 134.4 985 0 9 -- Chart
1974 10 26 00 16.9 133.1 980 0 9 -- Chart
1974 10 26 06 16.6 131.6 975 0 9 -- Chart
1974 10 26 12 16.6 130.0 970 0 9 -- Chart
1974 10 26 18 16.7 128.5 960 0 9 -- Chart
1974 10 27 00 16.7 127.3 955 0 9 -- Chart
1974 10 27 06 16.8 126.1 945 0 9 -- Chart
1974 10 27 12 17.1 124.4 940 0 9 -- Chart
1974 10 27 18 17.3 123.7 945 0 9 -- Chart
1974 10 28 00 17.4 121.5 960 0 9 -- Chart
1974 10 28 06 17.7 120.3 965 0 9 -- Chart
1974 10 28 12 17.8 119.1 970 0 9 -- Chart
1974 10 28 18 18.0 118.0 975 0 9 -- Chart
1974 10 29 00 18.5 117.3 975 0 9 -- Chart
1974 10 29 06 18.9 116.5 975 0 9 -- Chart
1974 10 29 12 19.5 115.6 975 0 9 -- Chart
1974 10 29 18 20.2 114.9 980 0 9 -- Chart
1974 10 30 00 21.0 114.0 980 0 9 -- Chart
1974 10 30 06 21.1 113.7 985 0 9 -- Chart
1974 10 30 12 21.0 113.5 990 0 9 -- Chart
1974 10 30 18 20.9 113.3 996 0 9 -- Chart
1974 10 31 00 20.7 113.0 1000 0 2 -- Chart
1974 10 31 06 20.6 112.6 1004 0 2 -- Chart
Japan Meteorological Agency Best Track Data | Correction Date : 2013-03-19
< Typhoon 197425 1974 Season Typhoon 197427 >

Help